createdAt,value
2018-11-20T00:02:05.252Z,4.83
2018-11-20T00:04:51.542Z,4.90
2018-11-20T00:07:53.384Z,5.47
2018-11-20T00:10:39.784Z,6.03
2018-11-20T00:13:48.088Z,5.12
2018-11-20T00:16:42.114Z,5.45
2018-11-20T00:19:20.288Z,6.03
2018-11-20T00:22:11.665Z,5.42
2018-11-20T00:25:04.340Z,5.33
2018-11-20T00:28:03.268Z,5.73
2018-11-20T00:31:02.264Z,5.60
2018-11-20T00:34:06.728Z,5.47
2018-11-20T00:37:03.008Z,5.67
2018-11-20T00:40:01.609Z,6.07
2018-11-20T00:42:42.329Z,5.67
2018-11-20T00:45:33.177Z,5.20
2018-11-20T00:48:28.475Z,6.10
2018-11-20T00:51:26.968Z,5.80
2018-11-20T00:54:12.221Z,6.43
2018-11-20T00:57:04.223Z,5.67
2018-11-20T01:00:04.524Z,5.92
2018-11-20T01:02:54.055Z,5.80
2018-11-20T01:05:39.374Z,5.75
2018-11-20T01:08:32.355Z,5.60
2018-11-20T01:11:10.822Z,5.45
2018-11-20T01:14:13.349Z,6.57
2018-11-20T01:16:59.536Z,5.80
2018-11-20T01:19:49.814Z,6.58
2018-11-20T01:22:37.997Z,6.43
2018-11-20T01:25:27.853Z,6.90
2018-11-20T01:28:48.893Z,6.43
2018-11-20T01:31:38.657Z,7.03
2018-11-20T01:34:28.464Z,7.20
2018-11-20T01:37:14.144Z,6.83
2018-11-20T01:40:03.998Z,6.50
2018-11-20T01:42:55.266Z,6.70
2018-11-20T01:45:48.401Z,6.20
2018-11-20T01:48:38.730Z,6.57
2018-11-20T01:51:23.721Z,7.10
2018-11-20T01:54:13.486Z,7.03
2018-11-20T01:57:05.736Z,7.17
2018-11-20T02:00:04.585Z,7.53
2018-11-20T02:03:05.601Z,7.40
2018-11-20T02:06:01.308Z,7.13
2018-11-20T02:08:59.751Z,8.00
2018-11-20T02:11:54.372Z,7.37
2018-11-20T02:14:42.161Z,7.43
2018-11-20T02:17:54.161Z,7.87
2018-11-20T02:20:42.746Z,8.67
2018-11-20T02:23:43.430Z,7.83
2018-11-20T02:26:35.900Z,7.97
2018-11-20T02:29:24.083Z,7.80
2018-11-20T02:32:31.723Z,7.60
2018-11-20T02:35:24.222Z,8.57
2018-11-20T02:38:13.877Z,8.73
2018-11-20T02:40:57.189Z,8.83
2018-11-20T02:43:47.281Z,9.83
2018-11-20T02:46:46.041Z,9.47
2018-11-20T02:49:39.533Z,9.43
2018-11-20T02:52:31.773Z,12.40
2018-11-20T02:55:27.612Z,11.00
2018-11-20T02:58:26.110Z,11.97
2018-11-20T03:01:03.950Z,12.20
2018-11-20T03:03:52.638Z,12.30
2018-11-20T03:06:30.398Z,11.48
2018-11-20T03:09:12.515Z,12.07
2018-11-20T03:12:01.101Z,12.90
2018-11-20T03:14:56.315Z,12.70
2018-11-20T03:17:49.893Z,12.68
2018-11-20T03:20:43.641Z,12.53
2018-11-20T03:23:33.368Z,12.67
2018-11-20T03:26:47.103Z,12.47
2018-11-20T03:30:16.940Z,12.67
2018-11-20T03:33:07.054Z,12.85
2018-11-20T03:35:55.512Z,12.43
2018-11-20T03:39:00.339Z,13.37
2018-11-20T03:42:08.207Z,12.23
2018-11-20T03:45:03.509Z,14.20
2018-11-20T03:47:52.630Z,14.93
2018-11-20T03:50:44.137Z,14.37
2018-11-20T03:53:40.415Z,13.47
2018-11-20T03:56:28.999Z,14.10
2018-11-20T03:59:17.306Z,14.60
2018-11-20T04:01:58.957Z,14.23
2018-11-20T04:04:52.442Z,14.93
2018-11-20T04:07:50.998Z,14.37
2018-11-20T04:10:41.018Z,18.13
2018-11-20T04:13:33.720Z,15.87
2018-11-20T04:16:26.361Z,15.43
2018-11-20T04:19:18.953Z,17.00
2018-11-20T04:22:29.225Z,18.27
2018-11-20T04:25:36.902Z,16.15
2018-11-20T04:28:29.516Z,17.07
2018-11-20T04:32:17.620Z,14.77
2018-11-20T04:35:31.530Z,17.00
2018-11-20T04:38:28.477Z,18.43
2018-11-20T04:41:20.374Z,15.90
2018-11-20T04:44:28.565Z,19.27
2018-11-20T04:47:24.385Z,14.53
2018-11-20T04:50:18.227Z,17.43
2018-11-20T04:53:14.841Z,16.73
2018-11-20T04:56:08.680Z,15.85
2018-11-20T04:58:59.948Z,16.33
2018-11-20T05:02:05.316Z,16.70
2018-11-20T05:05:12.625Z,15.63
2018-11-20T05:08:04.454Z,14.40
2018-11-20T05:10:59.027Z,15.33
2018-11-20T05:13:54.215Z,16.57
2018-11-20T05:16:46.693Z,15.60
2018-11-20T05:19:48.590Z,15.20
2018-11-20T05:22:35.181Z,14.97
2018-11-20T05:25:43.197Z,16.73
2018-11-20T05:28:45.767Z,14.03
2018-11-20T05:31:34.334Z,14.23
2018-11-20T05:34:29.883Z,14.70
2018-11-20T05:37:22.546Z,13.57
2018-11-20T05:40:10.997Z,15.23
2018-11-20T05:43:01.879Z,15.43
2018-11-20T05:46:07.024Z,13.80
2018-11-20T05:48:55.117Z,15.40
2018-11-20T05:51:48.812Z,15.00
2018-11-20T05:54:33.847Z,14.20
2018-11-20T05:57:23.515Z,14.03
2018-11-20T06:00:07.985Z,14.10
2018-11-20T06:03:10.177Z,15.13
2018-11-20T06:05:55.707Z,16.37
2018-11-20T06:08:45.746Z,14.10
2018-11-20T06:11:33.959Z,16.00
2018-11-20T06:14:22.611Z,14.03
2018-11-20T06:17:20.920Z,15.43
2018-11-20T06:20:21.977Z,14.67
2018-11-20T06:23:14.868Z,14.13
2018-11-20T06:26:03.405Z,14.43
2018-11-20T06:29:11.322Z,15.93
2018-11-20T06:32:06.799Z,14.87
2018-11-20T06:34:43.622Z,15.33
2018-11-20T06:37:46.475Z,15.50
2018-11-20T06:40:35.364Z,14.15
2018-11-20T06:43:36.206Z,15.43
2018-11-20T06:46:16.177Z,15.60
2018-11-20T06:49:32.497Z,16.30
2018-11-20T06:52:32.812Z,14.38
2018-11-20T06:55:21.182Z,15.53
2018-11-20T06:58:15.588Z,16.20
2018-11-20T07:01:20.430Z,13.08
2018-11-20T07:04:31.179Z,14.38
2018-11-20T07:07:35.049Z,14.17
2018-11-20T07:10:27.625Z,15.38
2018-11-20T07:13:33.262Z,15.47
2018-11-20T07:17:07.366Z,15.00
2018-11-20T07:20:11.190Z,15.07
2018-11-20T07:22:50.697Z,15.00
2018-11-20T07:25:46.335Z,15.65
2018-11-20T07:28:36.553Z,15.13
2018-11-20T07:31:28.174Z,15.30
2018-11-20T07:34:23.613Z,15.53
2018-11-20T07:37:04.342Z,16.00
2018-11-20T07:39:53.973Z,15.07
2018-11-20T07:42:51.064Z,17.03
2018-11-20T07:45:41.792Z,14.67
2018-11-20T07:48:29.174Z,15.98
2018-11-20T07:51:26.454Z,15.40
2018-11-20T07:54:14.813Z,16.07
2018-11-20T07:57:03.761Z,16.70
2018-11-20T07:59:55.555Z,15.93
2018-11-20T08:02:53.514Z,16.10
2018-11-20T08:06:47.153Z,17.55
2018-11-20T08:09:35.005Z,16.73
2018-11-20T08:12:16.168Z,16.80
2018-11-20T08:14:58.318Z,16.40
2018-11-20T08:17:49.871Z,16.77
2018-11-20T08:20:38.557Z,17.17
2018-11-20T08:23:45.479Z,16.53
2018-11-20T08:26:34.277Z,17.20
2018-11-20T08:29:24.508Z,15.17
2018-11-20T08:32:13.287Z,15.63
2018-11-20T08:35:01.812Z,16.40
2018-11-20T08:37:52.175Z,16.40
2018-11-20T08:40:41.881Z,16.42
2018-11-20T08:43:37.770Z,16.37
2018-11-20T08:46:56.943Z,15.43
2018-11-20T08:49:38.513Z,16.33
2018-11-20T08:52:29.884Z,15.93
2018-11-20T08:55:29.591Z,17.10
2018-11-20T08:58:22.457Z,15.75
2018-11-20T09:01:36.207Z,15.35
2018-11-20T09:04:22.273Z,15.50
2018-11-20T09:08:14.380Z,17.60
2018-11-20T09:11:21.992Z,15.53
2018-11-20T09:14:29.580Z,16.13
2018-11-20T09:17:30.622Z,16.57
2018-11-20T09:20:38.220Z,16.73
2018-11-20T09:23:45.759Z,16.42
2018-11-20T09:26:53.385Z,17.10
2018-11-20T09:30:00.950Z,16.03
2018-11-20T09:33:08.754Z,16.67
2018-11-20T09:36:16.551Z,16.83
2018-11-20T09:39:26.738Z,17.53
2018-11-20T09:42:34.441Z,17.83
2018-11-20T09:45:56.756Z,16.87
2018-11-20T09:49:04.320Z,15.63
2018-11-20T09:52:11.868Z,16.42
2018-11-20T09:55:19.454Z,16.50
2018-11-20T09:58:26.982Z,14.40
2018-11-20T10:01:34.526Z,15.97
2018-11-20T10:04:42.076Z,16.97
2018-11-20T10:07:49.701Z,16.27
2018-11-20T10:10:57.280Z,16.10
2018-11-20T10:14:04.943Z,16.67
2018-11-20T10:17:03.903Z,15.30
2018-11-20T10:20:11.503Z,16.40
2018-11-20T10:23:10.573Z,17.23
2018-11-20T10:26:18.152Z,16.93
2018-11-20T10:29:45.775Z,15.50
2018-11-20T10:32:53.361Z,15.93
2018-11-20T10:36:00.895Z,15.83
2018-11-20T10:39:08.528Z,16.40
2018-11-20T10:42:16.071Z,16.73
2018-11-20T10:45:23.964Z,16.53
2018-11-20T10:48:31.631Z,17.82
2018-11-20T10:51:39.174Z,17.13
2018-11-20T10:54:46.995Z,15.67
2018-11-20T10:57:54.814Z,16.23
2018-11-20T11:00:41.379Z,16.73
2018-11-20T11:03:48.949Z,17.13
2018-11-20T11:06:59.791Z,16.67
2018-11-20T11:10:00.263Z,16.27
2018-11-20T11:12:50.187Z,16.40
2018-11-20T11:15:45.183Z,15.97
2018-11-20T11:18:44.042Z,16.57
2018-11-20T11:21:36.297Z,17.00
2018-11-20T11:24:23.573Z,17.57
2018-11-20T11:27:17.417Z,17.13
2018-11-20T11:30:08.934Z,17.47
2018-11-20T11:33:04.782Z,16.47
2018-11-20T11:35:52.768Z,17.67
2018-11-20T11:38:40.764Z,17.33
2018-11-20T11:41:23.950Z,16.57
2018-11-20T11:44:25.255Z,17.60
2018-11-20T11:47:12.383Z,16.27
2018-11-20T11:49:56.911Z,16.77
2018-11-20T11:52:53.316Z,16.75
2018-11-20T11:56:02.688Z,17.83
2018-11-20T11:58:53.671Z,16.93
2018-11-20T12:04:41.052Z,17.73
2018-11-20T12:07:31.061Z,16.60
2018-11-20T12:10:36.403Z,17.48
2018-11-20T12:13:22.457Z,17.10
2018-11-20T12:16:09.827Z,16.97
2018-11-20T12:19:34.408Z,16.93
2018-11-20T12:22:21.695Z,17.13
2018-11-20T12:25:13.281Z,17.50
2018-11-20T12:28:02.420Z,17.23
2018-11-20T12:30:46.583Z,18.00
2018-11-20T12:33:38.172Z,16.87
2018-11-20T12:36:30.554Z,17.60
2018-11-20T12:39:51.376Z,17.92
2018-11-20T12:42:51.830Z,17.73
2018-11-20T12:46:06.053Z,15.53
2018-11-20T12:49:06.943Z,18.73
2018-11-20T12:51:56.218Z,17.92
2018-11-20T12:54:57.511Z,17.33
2018-11-20T12:58:11.807Z,16.37
2018-11-20T13:01:12.335Z,16.97
2018-11-20T13:03:59.549Z,18.30
2018-11-20T13:06:37.922Z,16.40
2018-11-20T13:09:20.767Z,17.90
2018-11-20T13:12:23.224Z,17.03
2018-11-20T13:15:21.239Z,16.73
2018-11-20T13:18:22.055Z,17.40
2018-11-20T13:21:22.033Z,17.10
2018-11-20T13:24:13.602Z,17.73
2018-11-20T13:27:35.664Z,17.37
2018-11-20T13:30:26.355Z,17.47
2018-11-20T13:33:33.464Z,16.97
2018-11-20T13:36:27.176Z,16.62
2018-11-20T13:39:52.734Z,18.27
2018-11-20T13:42:38.931Z,17.00
2018-11-20T13:45:36.927Z,15.58
2018-11-20T13:48:37.910Z,16.13
2018-11-20T13:51:35.550Z,15.33
2018-11-20T13:54:24.678Z,16.90
2018-11-20T13:57:14.422Z,16.97
2018-11-20T14:00:23.517Z,17.00
2018-11-20T14:03:18.766Z,16.87
2018-11-20T14:06:24.372Z,16.23
2018-11-20T14:09:13.194Z,15.70
2018-11-20T14:12:04.076Z,16.17
2018-11-20T14:14:48.047Z,16.70
2018-11-20T14:18:03.695Z,18.43
2018-11-20T14:21:01.506Z,16.87
2018-11-20T14:24:05.718Z,16.80
2018-11-20T14:26:56.322Z,18.47
2018-11-20T14:29:43.139Z,17.67
2018-11-20T14:32:31.312Z,16.53
2018-11-20T14:35:19.534Z,17.63
2018-11-20T14:38:06.476Z,18.33
2018-11-20T14:40:50.902Z,17.13
2018-11-20T14:43:41.744Z,17.82
2018-11-20T14:46:45.448Z,17.60
2018-11-20T14:49:33.795Z,17.50
2018-11-20T14:52:42.175Z,19.27
2018-11-20T14:55:29.817Z,18.30
2018-11-20T14:58:14.563Z,18.87
2018-11-20T15:01:01.755Z,17.37
2018-11-20T15:03:52.717Z,17.85
2018-11-20T15:06:39.953Z,18.53
2018-11-20T15:09:29.358Z,18.10
2018-11-20T15:12:17.934Z,18.50
2018-11-20T15:15:10.208Z,18.83
2018-11-20T15:17:49.350Z,18.40
2018-11-20T15:20:50.780Z,19.00
2018-11-20T15:23:38.473Z,19.53
2018-11-20T15:26:34.525Z,19.55
2018-11-20T15:29:41.487Z,18.47
2018-11-20T15:32:34.409Z,19.50
2018-11-20T15:35:24.671Z,19.83
2018-11-20T15:38:10.153Z,19.73
2018-11-20T15:40:52.352Z,20.65
2018-11-20T15:43:58.289Z,19.00
2018-11-20T15:46:47.320Z,19.73
2018-11-20T15:49:35.244Z,19.20
2018-11-20T15:53:19.669Z,20.08
2018-11-20T15:56:13.825Z,19.40
2018-11-20T15:59:12.397Z,19.23
2018-11-20T16:01:59.924Z,19.70
2018-11-20T16:04:50.661Z,19.07
2018-11-20T16:07:45.110Z,18.87
2018-11-20T16:10:38.849Z,19.20
2018-11-20T16:13:37.123Z,19.27
2018-11-20T16:16:40.829Z,18.92
2018-11-20T16:19:41.407Z,18.83
2018-11-20T16:22:37.117Z,19.32
2018-11-20T16:25:21.605Z,19.15
2018-11-20T16:28:08.265Z,18.60
2018-11-20T16:30:56.711Z,17.80
2018-11-20T16:38:15.001Z,18.40
2018-11-20T16:41:15.445Z,18.43
2018-11-20T16:44:13.696Z,18.00
2018-11-20T16:47:05.261Z,17.90
2018-11-20T16:49:58.276Z,16.67
2018-11-20T16:52:44.575Z,17.47
2018-11-20T16:55:49.345Z,17.25
2018-11-20T16:58:52.004Z,18.43
2018-11-20T17:01:51.827Z,17.70
2018-11-20T17:05:00.702Z,16.43
2018-11-20T17:07:58.180Z,16.40
2018-11-20T17:10:53.027Z,15.90
2018-11-20T17:14:20.932Z,17.13
2018-11-20T17:17:18.011Z,17.37
2018-11-20T17:20:06.924Z,16.37
2018-11-20T17:23:10.132Z,15.85
2018-11-20T17:26:04.000Z,17.27
2018-11-20T17:31:57.977Z,16.42
2018-11-20T17:34:46.057Z,16.37
2018-11-20T17:37:47.971Z,15.50
2018-11-20T17:41:10.759Z,15.70
2018-11-20T17:44:05.953Z,14.47
2018-11-20T17:47:56.428Z,15.07
2018-11-20T17:51:14.575Z,14.77
2018-11-20T17:54:14.605Z,14.90
2018-11-20T17:57:12.969Z,14.55
2018-11-20T18:03:10.825Z,13.93
2018-11-20T18:06:21.659Z,13.83
2018-11-20T18:09:14.499Z,13.60
2018-11-20T18:12:40.457Z,13.63
2018-11-20T18:15:43.344Z,12.73
2018-11-20T18:18:33.789Z,13.70
2018-11-20T18:21:31.257Z,12.10
2018-11-20T18:24:23.371Z,13.40
2018-11-20T18:26:59.257Z,12.33
2018-11-20T18:29:50.298Z,13.07
2018-11-20T18:32:41.611Z,13.37
2018-11-20T18:35:36.574Z,13.70
2018-11-20T18:38:26.133Z,12.60
2018-11-20T18:41:14.424Z,13.00
2018-11-20T18:44:20.020Z,13.50
2018-11-20T18:47:07.141Z,13.13
2018-11-20T18:49:48.887Z,12.93
2018-11-20T18:52:36.848Z,13.07
2018-11-20T18:55:34.736Z,14.00
2018-11-20T18:58:21.680Z,12.93
2018-11-20T19:01:11.773Z,13.10
2018-11-20T19:08:14.516Z,13.53
2018-11-20T19:11:13.542Z,13.27
2018-11-20T19:14:02.710Z,12.95
2018-11-20T19:17:27.986Z,14.07
2018-11-20T19:20:14.949Z,13.98
2018-11-20T19:24:01.530Z,14.13
2018-11-20T19:27:15.362Z,13.93
2018-11-20T19:30:22.883Z,13.27
2018-11-20T19:33:30.392Z,12.80
2018-11-20T19:36:37.933Z,13.87
2018-11-20T19:39:47.980Z,13.87
2018-11-20T19:42:55.481Z,14.37
2018-11-20T19:46:03.001Z,13.63
2018-11-20T19:49:10.488Z,14.33
2018-11-20T19:52:18.102Z,13.43
2018-11-20T19:55:18.449Z,14.63
2018-11-20T19:58:25.987Z,13.97
2018-11-20T20:01:33.521Z,14.63
2018-11-20T20:04:41.035Z,14.55
2018-11-20T20:07:51.382Z,15.43
2018-11-20T20:10:56.102Z,13.93
2018-11-20T20:14:03.619Z,15.20
2018-11-20T20:16:50.584Z,14.00
2018-11-20T20:19:58.094Z,15.30
2018-11-20T20:23:05.609Z,15.20
2018-11-20T20:26:13.633Z,16.77
2018-11-20T20:29:01.828Z,14.53
2018-11-20T20:32:09.356Z,15.47
2018-11-20T20:35:16.910Z,15.87
2018-11-20T20:38:24.884Z,15.00
2018-11-20T20:41:32.409Z,16.10
2018-11-20T20:44:39.925Z,17.03
2018-11-20T20:47:47.432Z,15.80
2018-11-20T20:50:55.115Z,16.23
2018-11-20T20:54:02.958Z,14.50
2018-11-20T20:57:10.851Z,15.33
2018-11-20T21:00:18.256Z,15.72
2018-11-20T21:03:25.820Z,14.95
2018-11-20T21:06:33.331Z,16.40
2018-11-20T21:09:40.832Z,15.95
2018-11-20T21:12:48.355Z,16.57
2018-11-20T21:15:56.468Z,16.30
2018-11-20T21:19:03.985Z,16.00
2018-11-20T21:22:11.499Z,16.37
2018-11-20T21:25:19.046Z,16.83
2018-11-20T21:28:17.326Z,16.57
2018-11-20T21:31:13.874Z,16.40
2018-11-20T21:34:21.413Z,17.65
2018-11-20T21:37:28.913Z,17.63
2018-11-20T21:40:36.809Z,16.97
2018-11-20T21:43:44.604Z,16.97
2018-11-20T21:46:52.130Z,15.83
2018-11-20T21:49:59.635Z,17.30
2018-11-20T21:53:07.327Z,16.80
2018-11-20T21:56:14.939Z,17.20
2018-11-20T21:59:24.299Z,17.70
2018-11-20T22:02:31.811Z,17.77
2018-11-20T22:05:39.351Z,17.60
2018-11-20T22:11:38.899Z,16.17
2018-11-20T22:14:36.152Z,16.30
2018-11-20T22:17:43.671Z,16.87
2018-11-20T22:20:31.808Z,16.90
2018-11-20T22:23:19.937Z,17.60
2018-11-20T22:26:27.481Z,16.97
2018-11-20T22:29:35.007Z,16.80
2018-11-20T22:32:42.536Z,17.50
2018-11-20T22:35:50.051Z,17.40
2018-11-20T22:38:37.168Z,16.57
2018-11-20T22:41:44.706Z,17.07
2018-11-20T22:44:52.233Z,17.90
2018-11-20T22:47:59.753Z,16.73
2018-11-20T22:51:07.324Z,17.53
2018-11-20T22:56:27.522Z,18.80
2018-11-20T22:59:22.631Z,17.63
2018-11-20T23:02:30.149Z,18.43
2018-11-20T23:05:16.922Z,18.07
2018-11-20T23:08:05.370Z,17.97
2018-11-20T23:10:53.836Z,18.53
2018-11-20T23:13:42.313Z,17.33
2018-11-20T23:16:30.778Z,17.27
2018-11-20T23:19:19.203Z,17.17
2018-11-20T23:22:07.652Z,18.60
2018-11-20T23:24:56.104Z,19.30
2018-11-20T23:27:25.697Z,17.03
2018-11-20T23:29:55.430Z,17.93
2018-11-20T23:32:27.551Z,17.43
2018-11-20T23:34:57.315Z,18.42
2018-11-20T23:37:26.845Z,17.73
2018-11-20T23:39:56.687Z,18.27
2018-11-20T23:42:28.742Z,18.70
2018-11-20T23:44:58.554Z,17.85
2018-11-20T23:47:27.878Z,18.07
2018-11-20T23:49:57.366Z,18.93
2018-11-20T23:52:27.162Z,17.97
2018-11-20T23:54:56.898Z,18.50
2018-11-20T23:57:28.507Z,17.93
2018-11-20T23:59:58.451Z,18.63
